Time;durP1;ratioP1;P1;durP2;ratioP2;P2;SDS_P1;SDS_P2;PMS_P1;PMS_P2;Temp;Humidity;BMP_temperature;BMP_pressure;BME280_temperature;BME280_humidity;BME280_pressure;Samples;Min_cycle;Max_cycle;Signal;HPM_P1;HPM_P2
2022/09/14 00:01:47;;;;;;;2.58;1.55;;;22.00;66.10;;;;;;5087818;28;20043;-51
2022/09/14 00:04:24;;;;;;;1.52;1.33;;;22.00;66.20;;;;;;5089382;28;20066;-52
2022/09/14 00:06:50;;;;;;;2.08;1.30;;;22.00;66.00;;;;;;5070975;28;20040;-53
2022/09/14 00:09:28;;;;;;;2.42;1.90;;;21.90;66.00;;;;;;5090514;28;20123;-49
2022/09/14 00:11:59;;;;;;;2.55;1.80;;;21.90;66.20;;;;;;5095245;28;20085;-50
2022/09/14 00:14:26;;;;;;;2.90;1.48;;;21.90;66.20;;;;;;5100334;28;20047;-51
2022/09/14 00:16:52;;;;;;;2.13;1.70;;;21.90;65.90;;;;;;5101724;28;20051;-51
2022/09/14 00:19:25;;;;;;;3.00;1.80;;;21.90;65.90;;;;;;5090750;28;20046;-52
2022/09/14 00:21:56;;;;;;;1.90;1.25;;;21.90;66.10;;;;;;5086805;28;20048;-50
2022/09/14 00:24:25;;;;;;;2.05;1.67;;;21.80;65.70;;;;;;5105835;28;20419;-52
2022/09/14 00:26:54;;;;;;;3.88;2.15;;;21.80;65.60;;;;;;5101678;28;20062;-51
2022/09/14 00:29:24;;;;;;;3.85;2.17;;;21.80;65.30;;;;;;5092079;28;20075;-51
2022/09/14 00:31:53;;;;;;;2.53;1.40;;;21.80;65.20;;;;;;5088848;28;20055;-51
2022/09/14 00:34:22;;;;;;;3.55;1.30;;;21.70;65.20;;;;;;5102844;28;20035;-51
2022/09/14 00:36:50;;;;;;;5.38;1.85;;;21.70;65.20;;;;;;5101430;28;20049;-52
2022/09/14 00:39:19;;;;;;;2.95;1.92;;;21.60;64.90;;;;;;5104474;28;20048;-51
2022/09/14 00:41:53;;;;;;;3.38;1.30;;;21.60;65.30;;;;;;5094940;28;20051;-49
2022/09/14 00:44:22;;;;;;;2.83;1.48;;;21.50;65.10;;;;;;5098720;28;20534;-52
2022/09/14 00:46:52;;;;;;;2.85;1.83;;;21.40;64.90;;;;;;5105386;28;20545;-48
2022/09/14 00:49:36;;;;;;;2.50;1.50;;;21.40;65.20;;;;;;5100414;28;20452;-52
2022/09/14 00:52:08;;;;;;;3.17;2.00;;;21.40;65.60;;;;;;5097653;28;20035;-52
2022/09/14 00:54:42;;;;;;;3.45;1.45;;;21.30;65.10;;;;;;5091927;28;20047;-51
2022/09/14 00:57:09;;;;;;;4.07;1.50;;;21.30;65.50;;;;;;5091587;28;20052;-51
2022/09/14 00:59:39;;;;;;;2.70;1.17;;;21.30;65.50;;;;;;5089102;28;20573;-48
2022/09/14 01:02:13;;;;;;;3.13;2.00;;;21.20;65.10;;;;;;5107737;28;20044;-49
2022/09/14 01:04:41;;;;;;;2.10;1.95;;;21.20;65.30;;;;;;5104153;28;20109;-49
2022/09/14 01:07:25;;;;;;;2.65;1.55;;;21.20;65.60;;;;;;5105371;28;20041;-51
2022/09/14 01:10:06;;;;;;;1.83;1.60;;;21.20;65.80;;;;;;5092809;28;20039;-48
2022/09/14 01:12:57;;;;;;;3.70;1.83;;;21.20;65.80;;;;;;5096781;28;20040;-52
2022/09/14 01:16:00;;;;;;;3.60;1.63;;;21.20;66.10;;;;;;5088442;28;20047;-48
2022/09/14 01:18:44;;;;;;;1.85;1.52;;;21.20;66.50;;;;;;5086073;28;20044;-52
2022/09/14 01:21:19;;;;;;;2.70;1.63;;;21.20;66.60;;;;;;5104777;28;20399;-52
2022/09/14 01:23:54;;;;;;;2.00;1.90;;;21.20;66.80;;;;;;5101183;28;20147;-52
2022/09/14 01:26:43;;;;;;;5.15;2.22;;;21.20;67.00;;;;;;5107671;28;20069;-48
2022/09/14 01:29:32;;;;;;;2.53;1.90;;;21.20;67.10;;;;;;5097103;28;20043;-49
2022/09/14 01:32:20;;;;;;;2.35;1.50;;;21.20;67.10;;;;;;5101306;28;20040;-52
2022/09/14 01:34:51;;;;;;;2.40;1.98;;;21.20;67.60;;;;;;5109490;28;20407;-51
2022/09/14 01:37:34;;;;;;;2.28;1.80;;;21.10;67.00;;;;;;5088631;28;20043;-52
2022/09/14 01:40:20;;;;;;;2.13;1.67;;;21.20;67.50;;;;;;5101435;28;20114;-52
2022/09/14 01:43:05;;;;;;;3.22;1.63;;;21.20;67.70;;;;;;5101660;28;20054;-51
2022/09/14 01:45:33;;;;;;;2.42;1.70;;;21.20;67.40;;;;;;5110326;28;20048;-50
2022/09/14 01:48:03;;;;;;;3.28;1.63;;;21.20;67.10;;;;;;5098104;28;20063;-51
2022/09/14 01:50:39;;;;;;;3.35;1.25;;;21.20;67.20;;;;;;5108434;28;20039;-51
2022/09/14 01:53:33;;;;;;;2.70;1.60;;;21.20;67.20;;;;;;5088534;28;20032;-49
2022/09/14 01:56:14;;;;;;;2.47;2.25;;;21.20;67.10;;;;;;5111759;28;20488;-51
2022/09/14 01:58:50;;;;;;;1.98;1.60;;;21.20;66.60;;;;;;5085876;28;20620;-52
2022/09/14 02:01:26;;;;;;;4.72;2.10;;;21.20;66.90;;;;;;5111220;28;20051;-52
2022/09/14 02:04:04;;;;;;;8.07;3.03;;;21.10;66.60;;;;;;5113175;28;20048;-51
2022/09/14 02:06:43;;;;;;;6.05;2.47;;;21.10;66.60;;;;;;5099625;28;20120;-50
2022/09/14 02:09:12;;;;;;;3.80;2.10;;;21.10;66.60;;;;;;5111436;28;20036;-50
2022/09/14 02:11:44;;;;;;;2.78;2.58;;;21.10;66.60;;;;;;5107773;28;20105;-52
2022/09/14 02:14:10;;;;;;;3.83;1.95;;;21.10;66.50;;;;;;5105235;28;20496;-52
2022/09/14 02:16:38;;;;;;;4.00;2.08;;;21.10;66.70;;;;;;5106529;28;20044;-52
2022/09/14 02:19:05;;;;;;;4.88;2.15;;;21.10;66.80;;;;;;5104677;28;20126;-52
2022/09/14 02:21:39;;;;;;;3.35;2.58;;;21.10;66.90;;;;;;5110660;28;20044;-52
2022/09/14 02:24:09;;;;;;;4.80;2.17;;;21.10;67.00;;;;;;5089079;28;20048;-52
2022/09/14 02:26:37;;;;;;;3.38;2.58;;;21.00;66.80;;;;;;5102145;28;20040;-48
2022/09/14 02:29:04;;;;;;;4.13;2.47;;;21.10;67.20;;;;;;5104100;28;20404;-52
2022/09/14 02:32:03;;;;;;;3.78;2.25;;;21.00;67.20;;;;;;5112604;28;20035;-52
2022/09/14 02:34:47;;;;;;;3.10;2.08;;;21.10;67.60;;;;;;5104798;28;20051;-52
2022/09/14 02:37:18;;;;;;;6.38;2.50;;;21.10;67.40;;;;;;5103950;28;20063;-52
2022/09/14 02:40:03;;;;;;;5.47;2.28;;;21.10;67.10;;;;;;5101862;28;20438;-49
2022/09/14 02:42:37;;;;;;;3.58;1.90;;;21.10;67.60;;;;;;5102606;28;20031;-53
2022/09/14 02:45:43;;;;;;;3.53;2.42;;;21.10;67.50;;;;;;5104388;28;20043;-52
2022/09/14 02:48:21;;;;;;;3.53;1.88;;;21.10;67.60;;;;;;5104177;28;20051;-51
2022/09/14 02:51:26;;;;;;;2.85;2.47;;;21.10;67.20;;;;;;5111791;28;20053;-50
2022/09/14 02:54:15;;;;;;;4.35;2.60;;;21.10;67.40;;;;;;5104959;28;20032;-51
2022/09/14 02:56:47;;;;;;;2.92;2.35;;;21.00;67.20;;;;;;5094386;28;20384;-50
2022/09/14 02:59:14;;;;;;;6.57;2.25;;;21.10;66.80;;;;;;5098160;28;20043;-50
2022/09/14 03:01:40;;;;;;;3.55;2.60;;;21.00;66.70;;;;;;5103561;28;20040;-48
2022/09/14 03:04:15;;;;;;;2.83;1.92;;;21.00;66.80;;;;;;5110977;28;20154;-49
2022/09/14 03:06:43;;;;;;;4.45;2.60;;;21.00;66.90;;;;;;5102766;28;20110;-52
2022/09/14 03:09:14;;;;;;;4.03;2.30;;;20.90;66.50;;;;;;5111708;28;20070;-51
2022/09/14 03:11:40;;;;;;;4.55;2.55;;;20.90;66.70;;;;;;5096932;28;20047;-48
2022/09/14 03:14:09;;;;;;;6.30;3.05;;;20.90;66.60;;;;;;5110044;28;20400;-48
2022/09/14 03:16:39;;;;;;;7.35;2.45;;;20.90;66.60;;;;;;5105547;28;20039;-48
2022/09/14 03:19:06;;;;;;;5.40;2.83;;;20.90;66.90;;;;;;5112123;28;20047;-54
2022/09/14 03:21:36;;;;;;;4.43;3.28;;;20.80;66.80;;;;;;5089639;28;20400;-50
2022/09/14 03:24:07;;;;;;;4.25;2.92;;;20.80;66.60;;;;;;5108311;28;20034;-52
2022/09/14 03:26:37;;;;;;;5.05;2.58;;;20.80;66.50;;;;;;5105106;28;20075;-52
2022/09/14 03:29:05;;;;;;;8.15;3.13;;;20.70;66.50;;;;;;5100032;28;20050;-49
2022/09/14 03:31:34;;;;;;;4.28;3.08;;;20.70;66.60;;;;;;5105986;28;20054;-50
2022/09/14 03:34:03;;;;;;;4.60;3.00;;;20.70;66.60;;;;;;5109153;28;20048;-49
2022/09/14 03:36:34;;;;;;;3.83;2.80;;;20.60;66.70;;;;;;5110427;28;20054;-52
2022/09/14 03:39:01;;;;;;;6.15;3.40;;;20.60;66.90;;;;;;5099924;28;20040;-50
2022/09/14 03:41:30;;;;;;;3.35;3.05;;;20.60;66.80;;;;;;5080180;28;20044;-49
2022/09/14 03:43:57;;;;;;;4.75;3.13;;;20.60;66.90;;;;;;5096230;28;20123;-49
2022/09/14 03:46:24;;;;;;;7.20;4.32;;;20.50;67.00;;;;;;5089904;28;20036;-49
2022/09/14 03:48:53;;;;;;;6.40;3.90;;;20.50;67.20;;;;;;5086875;28;20032;-52
2022/09/14 03:51:23;;;;;;;6.57;3.45;;;20.50;67.20;;;;;;5109819;28;20035;-49
2022/09/14 03:53:50;;;;;;;5.10;3.30;;;20.50;67.30;;;;;;5084770;28;20039;-50
2022/09/14 03:56:23;;;;;;;9.93;3.78;;;20.50;67.30;;;;;;5103875;28;20101;-50
2022/09/14 03:58:50;;;;;;;6.50;3.33;;;20.40;67.50;;;;;;5088569;28;20438;-48
2022/09/14 04:01:19;;;;;;;6.25;3.72;;;20.40;67.50;;;;;;5100151;28;20040;-51
2022/09/14 04:03:50;;;;;;;5.40;3.00;;;20.40;67.80;;;;;;5107028;28;20536;-52
2022/09/14 04:06:17;;;;;;;5.70;3.38;;;20.40;67.70;;;;;;5109937;28;20048;-48
2022/09/14 04:08:45;;;;;;;8.48;4.93;;;20.40;67.90;;;;;;5096516;28;20039;-51
2022/09/14 04:11:24;;;;;;;5.45;3.90;;;20.40;67.90;;;;;;5089784;28;20047;-49
2022/09/14 04:13:51;;;;;;;5.63;3.92;;;20.40;68.50;;;;;;5088105;28;20046;-49
2022/09/14 04:16:21;;;;;;;5.07;3.55;;;20.40;68.00;;;;;;5088080;28;20042;-54
2022/09/14 04:18:48;;;;;;;6.22;4.72;;;20.40;67.90;;;;;;5093439;28;20145;-52
2022/09/14 04:21:17;;;;;;;7.85;4.55;;;20.40;68.00;;;;;;5100604;28;20074;-53
2022/09/14 04:23:46;;;;;;;5.00;3.17;;;20.40;68.10;;;;;;5068930;28;20048;-52
2022/09/14 04:26:33;;;;;;;3.25;2.95;;;20.40;68.00;;;;;;5100832;28;20039;-50
2022/09/14 04:29:00;;;;;;;9.30;3.53;;;20.40;67.90;;;;;;5101082;28;20059;-49
2022/09/14 04:31:27;;;;;;;4.57;3.15;;;20.30;68.10;;;;;;5110203;28;20040;-51
2022/09/14 04:33:55;;;;;;;5.03;3.45;;;20.30;68.50;;;;;;5090655;28;20111;-50
2022/09/14 04:36:27;;;;;;;6.07;3.22;;;20.30;67.80;;;;;;5084677;28;20052;-51
2022/09/14 04:38:54;;;;;;;4.90;3.72;;;20.30;67.80;;;;;;5089304;28;20717;-49
2022/09/14 04:41:21;;;;;;;4.93;3.45;;;20.30;68.00;;;;;;5085595;28;20059;-47
2022/09/14 04:43:52;;;;;;;4.22;3.17;;;20.30;68.00;;;;;;5080654;28;20109;-52
2022/09/14 04:46:25;;;;;;;6.63;3.25;;;20.20;68.20;;;;;;5089066;28;20034;-48
2022/09/14 04:48:52;;;;;;;3.50;3.10;;;20.30;68.40;;;;;;5090088;28;20032;-49
2022/09/14 04:51:24;;;;;;;6.18;3.47;;;20.20;68.20;;;;;;5079586;28;20094;-52
2022/09/14 04:53:52;;;;;;;5.97;3.13;;;20.20;68.10;;;;;;5082548;28;20051;-52
2022/09/14 04:56:23;;;;;;;6.10;3.47;;;20.20;68.10;;;;;;5084575;28;20040;-48
2022/09/14 04:58:55;;;;;;;5.22;3.40;;;20.20;68.30;;;;;;5080489;28;20041;-50
2022/09/14 05:01:23;;;;;;;3.85;2.85;;;20.20;68.10;;;;;;5080262;28;20044;-52
2022/09/14 05:03:54;;;;;;;4.72;3.13;;;20.20;67.80;;;;;;5081054;28;20064;-50
2022/09/14 05:06:25;;;;;;;3.55;2.38;;;20.10;67.80;;;;;;5091742;28;20075;-49
2022/09/14 05:08:52;;;;;;;4.55;2.67;;;20.10;67.90;;;;;;5106998;28;20044;-51
2022/09/14 05:11:22;;;;;;;5.60;2.80;;;20.10;67.80;;;;;;5100683;28;20028;-48
2022/09/14 05:13:52;;;;;;;3.75;2.58;;;20.10;68.00;;;;;;5100770;28;20043;-47
2022/09/14 05:16:35;;;;;;;3.35;2.22;;;20.10;68.40;;;;;;5094015;28;20040;-49
2022/09/14 05:19:08;;;;;;;3.92;2.58;;;20.00;68.00;;;;;;5093673;28;20047;-49
2022/09/14 05:21:37;;;;;;;3.80;2.10;;;20.00;68.20;;;;;;5095412;28;20101;-54
2022/09/14 05:24:11;;;;;;;5.78;2.20;;;20.00;68.30;;;;;;5094017;28;20519;-48
2022/09/14 05:26:38;;;;;;;3.38;1.80;;;20.00;68.10;;;;;;5096307;28;20456;-52
2022/09/14 05:29:04;;;;;;;3.28;1.77;;;20.00;67.90;;;;;;5112820;28;20035;-52
2022/09/14 05:31:32;;;;;;;3.60;2.05;;;20.00;67.80;;;;;;5102283;28;20558;-50
2022/09/14 05:33:59;;;;;;;5.85;2.38;;;20.00;67.90;;;;;;5110645;28;20047;-51
2022/09/14 05:36:25;;;;;;;5.93;3.05;;;20.00;68.00;;;;;;5105065;28;20110;-52
2022/09/14 05:38:52;;;;;;;4.47;2.65;;;19.90;68.30;;;;;;5114031;28;20134;-50
2022/09/14 05:41:20;;;;;;;3.85;1.90;;;19.90;68.20;;;;;;5098173;28;20555;-50
2022/09/14 05:43:49;;;;;;;5.18;1.92;;;19.90;68.10;;;;;;5102759;28;20052;-52
2022/09/14 05:46:19;;;;;;;3.47;2.05;;;19.90;68.00;;;;;;5097110;28;20042;-53
2022/09/14 05:48:50;;;;;;;7.63;3.40;;;19.90;68.20;;;;;;5095542;28;20040;-54
2022/09/14 05:51:22;;;;;;;3.58;1.98;;;19.90;68.20;;;;;;5087582;28;20135;-54
2022/09/14 05:53:57;;;;;;;4.88;2.30;;;19.80;68.10;;;;;;5106902;28;20046;-53
2022/09/14 05:56:27;;;;;;;5.65;2.55;;;19.80;67.80;;;;;;5098996;28;20039;-52
2022/09/14 05:58:58;;;;;;;1.73;1.60;;;19.80;68.00;;;;;;5088163;28;20044;-54
2022/09/14 06:01:32;;;;;;;3.45;2.00;;;19.80;68.20;;;;;;5098869;28;20054;-54
2022/09/14 06:04:01;;;;;;;3.13;2.03;;;19.80;68.40;;;;;;5087772;28;20048;-54
2022/09/14 06:06:31;;;;;;;3.28;2.10;;;19.70;68.70;;;;;;5089183;28;20040;-52
2022/09/14 06:08:58;;;;;;;4.78;2.15;;;19.70;68.60;;;;;;5104543;28;20043;-54
2022/09/14 06:11:28;;;;;;;2.65;2.22;;;19.70;68.60;;;;;;5100951;28;20039;-54
2022/09/14 06:13:56;;;;;;;2.95;1.75;;;19.70;68.60;;;;;;5100927;28;20099;-53
2022/09/14 06:16:25;;;;;;;6.18;2.00;;;19.70;68.50;;;;;;5090506;28;20447;-55
2022/09/14 06:18:53;;;;;;;2.35;1.90;;;19.70;68.60;;;;;;5079040;28;20046;-55
2022/09/14 06:21:21;;;;;;;3.42;1.80;;;19.70;68.50;;;;;;5100348;28;20052;-53
2022/09/14 06:23:54;;;;;;;3.58;2.25;;;19.70;68.60;;;;;;5091881;28;20097;-54
2022/09/14 06:26:21;;;;;;;3.80;1.67;;;19.70;68.80;;;;;;5091306;28;20032;-55
2022/09/14 06:28:49;;;;;;;3.25;2.00;;;19.70;68.70;;;;;;5089639;28;20063;-54
2022/09/14 06:31:17;;;;;;;3.83;2.10;;;19.70;69.00;;;;;;5107862;28;20040;-54
2022/09/14 06:33:45;;;;;;;7.57;3.13;;;19.70;69.20;;;;;;5106745;28;20126;-54
2022/09/14 06:36:18;;;;;;;3.55;1.63;;;19.70;68.90;;;;;;5111422;28;20043;-54
2022/09/14 06:38:47;;;;;;;2.40;1.90;;;19.70;68.90;;;;;;5099038;28;20099;-52
2022/09/14 06:41:25;;;;;;;3.47;2.33;;;19.70;68.80;;;;;;5094867;28;20047;-53
2022/09/14 06:43:55;;;;;;;2.75;1.75;;;19.70;68.70;;;;;;5064549;28;20508;-54
2022/09/14 06:46:27;;;;;;;4.53;1.52;;;19.70;68.90;;;;;;5080889;28;20045;-53
2022/09/14 06:49:19;;;;;;;;;;;19.70;68.80;;;;;;5090804;28;20097;-53
2022/09/14 06:51:50;;;;;;;4.25;2.50;;;19.70;68.60;;;;;;5087729;28;19920;-54
2022/09/14 06:54:24;;;;;;;3.33;1.83;;;19.70;69.30;;;;;;5080091;28;20051;-54
2022/09/14 06:56:53;;;;;;;7.32;1.95;;;19.70;68.90;;;;;;5085356;28;20040;-53
2022/09/14 06:59:20;;;;;;;6.30;3.05;;;19.70;68.80;;;;;;5083765;28;20579;-53
2022/09/14 07:01:49;;;;;;;3.88;2.22;;;19.70;68.90;;;;;;5081178;28;20107;-56
2022/09/14 07:04:16;;;;;;;6.68;2.00;;;19.70;69.00;;;;;;5086000;28;20044;-56
2022/09/14 07:06:49;;;;;;;6.07;2.25;;;19.70;69.70;;;;;;5090276;28;20048;-56
2022/09/14 07:09:17;;;;;;;6.30;2.43;;;19.80;69.20;;;;;;5091405;28;20032;-54
2022/09/14 07:11:44;;;;;;;3.38;1.85;;;19.80;69.10;;;;;;5083030;28;20044;-55
2022/09/14 07:14:16;;;;;;;5.22;2.17;;;19.80;69.00;;;;;;5081326;28;20131;-53
2022/09/14 07:16:43;;;;;;;4.22;1.88;;;19.80;69.00;;;;;;5064964;28;20047;-53
2022/09/14 07:19:12;;;;;;;6.00;2.72;;;19.80;69.60;;;;;;5079544;28;20416;-56
2022/09/14 07:21:43;;;;;;;4.63;3.00;;;19.90;69.00;;;;;;5073183;28;20047;-55
2022/09/14 07:24:15;;;;;;;4.00;2.60;;;19.90;68.90;;;;;;5091282;28;20094;-55
2022/09/14 07:26:42;;;;;;;4.32;2.90;;;19.90;68.70;;;;;;5101943;28;20067;-55
2022/09/14 07:29:16;;;;;;;3.72;2.60;;;19.90;68.60;;;;;;5099736;28;20660;-56
2022/09/14 07:31:52;;;;;;;4.38;3.00;;;19.90;68.90;;;;;;5103333;28;20075;-56
2022/09/14 07:34:21;;;;;;;5.43;2.90;;;19.90;68.70;;;;;;5092253;28;20036;-56
2022/09/14 07:36:48;;;;;;;3.58;3.25;;;19.90;68.50;;;;;;5102302;28;20534;-56
2022/09/14 07:39:24;;;;;;;3.97;2.88;;;19.90;68.70;;;;;;5096718;28;20047;-56
2022/09/14 07:41:54;;;;;;;4.40;3.47;;;19.80;68.60;;;;;;5091209;28;20046;-55
2022/09/14 07:44:22;;;;;;;5.28;2.75;;;19.80;68.70;;;;;;5072647;28;20047;-56
2022/09/14 07:46:52;;;;;;;4.25;3.28;;;19.80;68.80;;;;;;5102798;28;20043;-55
2022/09/14 07:49:21;;;;;;;4.20;3.13;;;19.80;68.90;;;;;;5070634;28;20044;-56
2022/09/14 07:51:48;;;;;;;4.57;2.92;;;19.80;69.10;;;;;;5071044;28;20041;-56
2022/09/14 07:54:19;;;;;;;3.50;3.10;;;19.80;69.10;;;;;;5099543;28;20058;-55
2022/09/14 07:56:50;;;;;;;4.32;3.38;;;19.80;69.30;;;;;;5094363;28;20062;-56
2022/09/14 07:59:17;;;;;;;5.78;3.17;;;19.80;69.00;;;;;;5080708;28;20130;-56
2022/09/14 08:02:04;;;;;;;3.65;2.95;;;19.80;68.90;;;;;;5094680;28;20039;-54
2022/09/14 08:04:35;;;;;;;5.07;3.05;;;19.80;68.60;;;;;;5110463;28;20044;-56
2022/09/14 08:07:02;;;;;;;5.55;3.25;;;19.80;68.70;;;;;;5102409;28;20042;-56
2022/09/14 08:09:29;;;;;;;4.40;3.28;;;19.80;68.90;;;;;;5102440;28;20093;-56
2022/09/14 08:12:00;;;;;;;5.93;3.45;;;19.70;68.90;;;;;;5104880;28;20043;-56
2022/09/14 08:14:27;;;;;;;4.40;3.15;;;19.80;68.90;;;;;;5100664;28;20488;-57
2022/09/14 08:16:56;;;;;;;4.15;3.50;;;19.70;68.90;;;;;;5098390;28;20041;-54
2022/09/14 08:19:23;;;;;;;5.32;2.90;;;19.70;69.10;;;;;;5102954;28;20421;-56
2022/09/14 08:21:50;;;;;;;4.50;3.20;;;19.70;69.30;;;;;;5091135;28;20109;-56
2022/09/14 08:24:19;;;;;;;6.07;3.20;;;19.70;69.10;;;;;;5106554;28;20463;-56
2022/09/14 08:26:47;;;;;;;3.97;2.97;;;19.70;69.10;;;;;;5105514;28;20051;-55
2022/09/14 08:29:15;;;;;;;3.58;3.28;;;19.70;69.30;;;;;;5095456;28;20040;-53
2022/09/14 08:31:44;;;;;;;5.50;3.45;;;19.70;69.30;;;;;;5105511;28;20101;-56
2022/09/14 08:34:11;;;;;;;6.20;3.78;;;19.70;69.30;;;;;;5102513;28;20040;-56
2022/09/14 08:36:39;;;;;;;7.03;4.95;;;19.70;69.40;;;;;;5099450;28;20056;-54
2022/09/14 08:39:08;;;;;;;5.68;4.88;;;19.80;69.50;;;;;;5091129;28;20064;-57
2022/09/14 08:41:44;;;;;;;6.47;5.18;;;19.80;69.50;;;;;;5100817;28;20044;-55
2022/09/14 08:44:43;;;;;;;5.82;4.97;;;19.80;69.40;;;;;;5078153;28;20051;-54
2022/09/14 08:47:42;;;;;;;4.85;4.35;;;19.80;69.80;;;;;;5090250;28;20055;-55
2022/09/14 08:50:17;;;;;;;4.90;4.50;;;19.90;69.80;;;;;;5082718;28;20043;-54
2022/09/14 08:52:52;;;;;;;6.45;4.85;;;19.90;69.40;;;;;;5104564;28;20068;-53
2022/09/14 08:55:40;;;;;;;5.68;4.50;;;19.90;69.60;;;;;;5069797;28;20048;-50
2022/09/14 08:58:43;;;;;;;5.97;4.93;;;19.90;69.70;;;;;;5076199;28;20928;-51
2022/09/14 09:01:40;;;;;;;5.57;4.38;;;19.90;69.60;;;;;;5095130;28;20032;-53
2022/09/14 09:04:33;;;;;;;5.63;3.80;;;19.90;69.10;;;;;;5088657;28;20140;-52
2022/09/14 09:07:45;;;;;;;4.25;3.53;;;19.90;69.20;;;;;;5085950;28;20369;-51
2022/09/14 09:10:12;;;;;;;5.70;3.47;;;19.90;69.40;;;;;;5104250;28;20048;-54
2022/09/14 09:12:49;;;;;;;6.55;2.80;;;19.90;69.00;;;;;;5102687;28;20508;-54
2022/09/14 09:15:33;;;;;;;6.68;3.47;;;19.90;68.90;;;;;;5093032;28;20043;-54
2022/09/14 09:18:08;;;;;;;6.28;3.33;;;19.90;69.60;;;;;;5096483;28;20050;-52
2022/09/14 09:20:42;;;;;;;5.63;3.03;;;19.80;69.20;;;;;;5102926;28;20131;-54
2022/09/14 09:23:13;;;;;;;6.70;3.42;;;19.80;69.30;;;;;;5091416;28;20052;-54
2022/09/14 09:25:51;;;;;;;2.97;2.60;;;19.80;69.30;;;;;;5088264;28;20056;-53
2022/09/14 09:28:18;;;;;;;4.72;2.63;;;19.80;69.60;;;;;;5088274;28;20059;-52
2022/09/14 09:30:45;;;;;;;4.68;2.10;;;19.80;69.50;;;;;;5103092;28;20039;-51
2022/09/14 09:33:26;;;;;;;4.18;2.47;;;19.80;69.30;;;;;;5101606;28;20079;-53
2022/09/14 09:36:22;;;;;;;4.63;1.90;;;19.80;69.50;;;;;;5078047;28;20067;-52
2022/09/14 09:38:49;;;;;;;2.60;2.10;;;19.80;69.10;;;;;;5079392;28;20048;-52
2022/09/14 09:41:25;;;;;;;1.88;1.70;;;19.80;69.30;;;;;;5096506;28;20036;-54
2022/09/14 09:43:59;;;;;;;3.13;1.50;;;19.90;69.30;;;;;;5086887;28;20048;-54
2022/09/14 09:46:31;;;;;;;3.25;2.65;;;19.90;69.10;;;;;;5095381;28;20038;-54
2022/09/14 09:49:02;;;;;;;2.78;1.90;;;19.90;69.20;;;;;;5100760;28;20047;-54
2022/09/14 09:51:32;;;;;;;1.95;1.50;;;19.90;69.20;;;;;;5109223;28;20050;-53
2022/09/14 09:54:12;;;;;;;4.00;1.80;;;19.90;69.40;;;;;;5095232;28;20547;-51
2022/09/14 09:57:20;;;;;;;4.00;1.65;;;19.90;69.00;;;;;;5093193;28;20044;-53
2022/09/14 09:59:50;;;;;;;1.70;1.45;;;19.90;68.80;;;;;;5086839;28;20055;-53
2022/09/14 10:02:31;;;;;;;2.63;1.90;;;19.90;68.50;;;;;;5102424;28;20039;-54
2022/09/14 10:05:24;;;;;;;2.97;2.67;;;19.90;68.60;;;;;;5102737;28;20043;-54
2022/09/14 10:07:54;;;;;;;2.85;1.60;;;19.90;68.60;;;;;;5100636;28;20058;-54
2022/09/14 10:10:37;;;;;;;3.17;1.50;;;19.90;68.40;;;;;;5112151;28;20045;-54
2022/09/14 10:13:34;;;;;;;2.25;1.75;;;19.90;68.40;;;;;;5099100;28;20040;-54
2022/09/14 10:16:25;;;;;;;3.03;1.40;;;19.90;68.40;;;;;;5105830;28;20054;-54
2022/09/14 10:18:54;;;;;;;2.80;1.70;;;19.90;68.40;;;;;;5109275;28;20040;-51
2022/09/14 10:21:30;;;;;;;3.65;1.30;;;19.90;68.20;;;;;;5111695;28;20457;-53
2022/09/14 10:24:14;;;;;;;1.17;1.08;;;19.90;68.40;;;;;;5096375;28;20392;-54
2022/09/14 10:26:40;;;;;;;2.10;0.95;;;19.90;68.70;;;;;;5092559;28;20044;-54
2022/09/14 10:29:43;;;;;;;2.03;1.05;;;19.90;68.30;;;;;;5098431;28;20036;-54
2022/09/14 10:32:22;;;;;;;2.00;1.27;;;20.00;68.40;;;;;;5090507;28;20064;-54
2022/09/14 10:34:51;;;;;;;0.80;0.75;;;20.00;68.10;;;;;;5103863;28;20050;-53
2022/09/14 10:37:30;;;;;;;2.22;1.27;;;20.00;68.10;;;;;;5095698;28;20129;-54
2022/09/14 10:40:22;;;;;;;1.85;0.90;;;20.00;67.80;;;;;;5077509;28;20044;-53
2022/09/14 10:43:00;;;;;;;1.88;1.20;;;20.10;67.70;;;;;;5088857;28;20131;-53
2022/09/14 10:45:38;;;;;;;1.15;0.80;;;20.10;67.70;;;;;;5102849;28;20047;-53
2022/09/14 10:48:29;;;;;;;1.33;0.90;;;20.10;67.60;;;;;;5109656;28;20074;-54
2022/09/14 10:51:06;;;;;;;2.70;1.25;;;20.10;67.20;;;;;;5076129;28;20119;-50
2022/09/14 10:53:54;;;;;;;1.25;1.10;;;20.10;67.20;;;;;;5116106;22;20473;-54
2022/09/14 10:56:51;;;;;;;1.48;1.15;;;20.20;67.30;;;;;;5083148;28;20040;-50
2022/09/14 10:59:27;;;;;;;1.70;0.90;;;20.00;66.90;;;;;;5091886;28;20500;-52
2022/09/14 11:02:32;;;;;;;3.15;1.00;;;20.20;67.20;;;;;;5094236;28;20032;-53
2022/09/14 11:05:26;;;;;;;3.08;0.80;;;20.20;67.10;;;;;;5092310;28;20047;-51
2022/09/14 11:08:07;;;;;;;;;;;20.20;67.20;;;;;;5091944;28;20036;-53
2022/09/14 11:11:05;;;;;;;1.58;0.70;;;20.20;67.20;;;;;;5093518;28;19919;-50
2022/09/14 11:13:45;;;;;;;;;;;20.20;66.70;;;;;;5092446;28;20086;-54
2022/09/14 11:16:46;;;;;;;1.90;1.23;;;20.20;66.70;;;;;;5091532;28;20368;-52
2022/09/14 11:19:32;;;;;;;1.55;1.00;;;20.20;66.50;;;;;;5052408;28;20059;-55
2022/09/14 11:22:31;;;;;;;2.08;1.20;;;20.10;66.20;;;;;;5091136;28;20032;-50
2022/09/14 11:25:14;;;;;;;1.50;0.80;;;20.10;66.80;;;;;;5091460;28;20488;-54
2022/09/14 11:27:53;;;;;;;2.17;1.38;;;20.00;65.40;;;;;;5094067;28;20067;-53
2022/09/14 11:30:22;;;;;;;1.85;0.70;;;20.00;65.20;;;;;;5094460;28;20040;-55
2022/09/14 11:32:58;;;;;;;2.78;0.90;;;19.90;65.10;;;;;;5091370;28;20039;-55
2022/09/14 11:35:44;;;;;;;1.98;0.90;;;19.90;65.00;;;;;;5070320;28;20048;-53
2022/09/14 11:38:28;;;;;;;2.58;1.08;;;19.80;65.30;;;;;;5092801;28;20403;-55
2022/09/14 11:41:11;;;;;;;1.02;0.73;;;19.80;65.70;;;;;;5091162;28;20550;-54
2022/09/14 11:43:46;;;;;;;1.85;1.17;;;19.70;66.00;;;;;;5090661;28;20090;-55
2022/09/14 11:46:31;;;;;;;1.50;1.13;;;19.70;65.60;;;;;;5094657;28;20102;-54
2022/09/14 11:49:10;;;;;;;1.73;0.93;;;19.70;65.90;;;;;;5090253;28;20048;-55
2022/09/14 11:51:48;;;;;;;0.90;0.90;;;19.60;66.00;;;;;;5095494;28;20056;-55
2022/09/14 11:54:20;;;;;;;1.55;1.20;;;19.60;65.60;;;;;;5090705;28;20063;-55
2022/09/14 11:56:49;;;;;;;1.75;0.90;;;19.60;65.80;;;;;;5090187;28;20472;-55
2022/09/14 11:59:39;;;;;;;2.58;0.80;;;19.60;65.40;;;;;;5095977;28;20504;-55
2022/09/14 12:02:24;;;;;;;2.75;1.08;;;19.50;65.30;;;;;;5090340;28;20055;-54
2022/09/14 12:05:06;;;;;;;3.40;0.98;;;19.50;65.20;;;;;;5091285;28;20051;-55
2022/09/14 12:07:44;;;;;;;3.03;1.08;;;19.40;64.70;;;;;;5092320;28;20047;-55
2022/09/14 12:10:16;;;;;;;1.83;1.17;;;19.40;65.00;;;;;;5095034;28;20043;-55
2022/09/14 12:13:05;;;;;;;1.45;0.85;;;19.40;65.70;;;;;;5090347;28;20450;-55
2022/09/14 12:15:39;;;;;;;3.45;1.20;;;19.40;65.90;;;;;;5089524;28;20044;-54
2022/09/14 12:18:08;;;;;;;4.78;1.52;;;19.30;66.00;;;;;;5089630;28;20566;-53
2022/09/14 12:20:37;;;;;;;3.05;1.35;;;19.30;66.30;;;;;;5090017;28;20048;-55
2022/09/14 12:23:19;;;;;;;3.38;1.45;;;19.20;66.70;;;;;;5090300;28;20480;-52
2022/09/14 12:26:17;;;;;;;2.45;1.38;;;19.30;66.50;;;;;;5075440;28;20122;-51
2022/09/14 12:28:54;;;;;;;2.35;1.10;;;19.30;66.20;;;;;;5082405;28;20052;-55
2022/09/14 12:31:46;;;;;;;3.30;1.80;;;19.30;66.70;;;;;;5089977;28;20044;-55
2022/09/14 12:34:15;;;;;;;4.10;1.60;;;19.20;66.70;;;;;;5091842;28;20496;-55
2022/09/14 12:36:42;;;;;;;3.50;1.25;;;19.20;67.00;;;;;;5084577;28;20140;-55
2022/09/14 12:39:24;;;;;;;2.45;1.63;;;19.20;67.30;;;;;;5090780;28;20119;-55
2022/09/14 12:41:53;;;;;;;2.80;1.60;;;19.20;68.10;;;;;;5089972;28;20070;-52
2022/09/14 12:44:40;;;;;;;3.22;1.58;;;19.30;68.10;;;;;;5095548;28;20048;-51
2022/09/14 12:47:27;;;;;;;2.13;1.48;;;19.30;67.60;;;;;;5063357;28;20043;-55
2022/09/14 12:50:06;;;;;;;2.75;1.10;;;19.40;67.00;;;;;;5072322;28;20576;-54
2022/09/14 12:52:43;;;;;;;2.65;1.20;;;19.40;66.50;;;;;;5092513;28;20040;-55
2022/09/14 12:55:38;;;;;;;1.40;1.02;;;19.40;66.10;;;;;;5089754;28;20046;-56
2022/09/14 12:58:26;;;;;;;1.75;1.08;;;19.40;66.40;;;;;;5071478;28;20040;-55
2022/09/14 13:01:16;;;;;;;1.98;1.40;;;19.40;66.50;;;;;;5091047;28;20038;-54
2022/09/14 13:03:53;;;;;;;3.95;1.20;;;19.40;66.10;;;;;;5091318;28;20059;-54
2022/09/14 13:06:21;;;;;;;2.25;1.10;;;19.40;66.30;;;;;;5076775;28;20040;-55
2022/09/14 13:08:54;;;;;;;2.88;1.42;;;19.40;66.70;;;;;;5069762;28;20045;-52
2022/09/14 13:11:35;;;;;;;4.05;1.30;;;19.40;66.90;;;;;;5082188;28;20062;-55
2022/09/14 13:14:06;;;;;;;3.17;1.20;;;19.40;67.20;;;;;;5082813;28;20529;-53
2022/09/14 13:16:43;;;;;;;1.90;1.20;;;19.40;67.00;;;;;;5089619;28;20046;-54
2022/09/14 13:19:31;;;;;;;2.90;2.03;;;19.40;67.10;;;;;;5093354;28;20427;-54
2022/09/14 13:22:00;;;;;;;5.13;1.80;;;19.50;67.20;;;;;;5074144;28;20649;-55
2022/09/14 13:24:46;;;;;;;2.83;1.38;;;19.50;67.20;;;;;;5090486;28;20086;-55
2022/09/14 13:27:34;;;;;;;2.25;1.38;;;19.60;67.90;;;;;;5090047;28;20059;-53
2022/09/14 13:30:17;;;;;;;4.13;1.60;;;19.60;67.80;;;;;;5093686;28;20444;-55